sensor_id;sensor_type;location;lat;lon;timestamp;pressure;altitude;pressure_sealevel;temperature;humidity
31501;BME280;31032;49.512;10.892;2022-08-20T00:00:24;97713.31;;;18.24;100.00
31501;BME280;31032;49.512;10.892;2022-08-20T00:02:53;97716.13;;;18.23;100.00
31501;BME280;31032;49.512;10.892;2022-08-20T00:05:21;97719.09;;;18.20;100.00
31501;BME280;31032;49.512;10.892;2022-08-20T00:07:46;97716.47;;;18.20;100.00
31501;BME280;31032;49.512;10.892;2022-08-20T00:10:12;97724.38;;;18.20;100.00
31501;BME280;31032;49.512;10.892;2022-08-20T00:12:42;97727.38;;;18.17;100.00
31501;BME280;31032;49.512;10.892;2022-08-20T00:15:10;97733.03;;;18.14;100.00
31501;BME280;31032;49.512;10.892;2022-08-20T00:17:37;97734.38;;;18.10;100.00
31501;BME280;31032;49.512;10.892;2022-08-20T00:20:10;97731.09;;;18.08;100.00
31501;BME280;31032;49.512;10.892;2022-08-20T00:22:36;97730.72;;;18.11;100.00
31501;BME280;31032;49.512;10.892;2022-08-20T00:25:06;97727.44;;;18.09;100.00
31501;BME280;31032;49.512;10.892;2022-08-20T00:27:32;97729.09;;;18.10;100.00
31501;BME280;31032;49.512;10.892;2022-08-20T00:29:57;97725.81;;;18.08;100.00
31501;BME280;31032;49.512;10.892;2022-08-20T00:32:23;97721.19;;;18.10;100.00
31501;BME280;31032;49.512;10.892;2022-08-20T00:34:48;97721.00;;;18.11;100.00
31501;BME280;31032;49.512;10.892;2022-08-20T00:37:14;97719.22;;;18.12;100.00
31501;BME280;31032;49.512;10.892;2022-08-20T00:39:39;97722.63;;;18.12;100.00
31501;BME280;31032;49.512;10.892;2022-08-20T00:42:06;97715.81;;;18.18;100.00
31501;BME280;31032;49.512;10.892;2022-08-20T00:44:32;97717.09;;;18.22;100.00
31501;BME280;31032;49.512;10.892;2022-08-20T00:46:57;97720.75;;;18.21;100.00
31501;BME280;31032;49.512;10.892;2022-08-20T00:49:26;97720.38;;;18.24;100.00
31501;BME280;31032;49.512;10.892;2022-08-20T00:52:06;97726.66;;;18.23;100.00
31501;BME280;31032;49.512;10.892;2022-08-20T00:54:33;97734.56;;;18.23;100.00
31501;BME280;31032;49.512;10.892;2022-08-20T00:57:08;97730.22;;;18.30;100.00
31501;BME280;31032;49.512;10.892;2022-08-20T00:59:36;97715.03;;;18.17;100.00
31501;BME280;31032;49.512;10.892;2022-08-20T01:02:06;97717.47;;;18.19;100.00
31501;BME280;31032;49.512;10.892;2022-08-20T01:04:33;97726.56;;;18.16;100.00
31501;BME280;31032;49.512;10.892;2022-08-20T01:07:00;97726.84;;;18.21;100.00
31501;BME280;31032;49.512;10.892;2022-08-20T01:09:26;97721.09;;;18.18;100.00
31501;BME280;31032;49.512;10.892;2022-08-20T01:11:52;97732.47;;;18.18;100.00
31501;BME280;31032;49.512;10.892;2022-08-20T01:14:18;97735.28;;;18.17;100.00
31501;BME280;31032;49.512;10.892;2022-08-20T01:17:02;97732.66;;;18.17;100.00
31501;BME280;31032;49.512;10.892;2022-08-20T01:19:37;97732.66;;;18.17;100.00
31501;BME280;31032;49.512;10.892;2022-08-20T01:22:04;97727.38;;;18.17;100.00
31501;BME280;31032;49.512;10.892;2022-08-20T01:25:00;97734.00;;;18.13;100.00
31501;BME280;31032;49.512;10.892;2022-08-20T01:27:29;97733.53;;;18.09;100.00
31501;BME280;31032;49.512;10.892;2022-08-20T01:29:56;97732.25;;;18.05;100.00
31501;BME280;31032;49.512;10.892;2022-08-20T01:32:22;97735.88;;;18.04;100.00
31501;BME280;31032;49.512;10.892;2022-08-20T01:34:48;97729.44;;;18.07;100.00
31501;BME280;31032;49.512;10.892;2022-08-20T01:37:13;97727.09;;;18.12;100.00
31501;BME280;31032;49.512;10.892;2022-08-20T01:39:38;97738.44;;;18.12;100.00
31501;BME280;31032;49.512;10.892;2022-08-20T01:44:45;97726.81;;;18.07;100.00
31501;BME280;31032;49.512;10.892;2022-08-20T01:47:17;97725.28;;;18.12;100.00
31501;BME280;31032;49.512;10.892;2022-08-20T01:49:47;97728.72;;;18.13;100.00
31501;BME280;31032;49.512;10.892;2022-08-20T01:52:32;97728.72;;;18.13;100.00
31501;BME280;31032;49.512;10.892;2022-08-20T01:55:01;97734.38;;;18.10;100.00
31501;BME280;31032;49.512;10.892;2022-08-20T01:57:26;97723.84;;;18.10;100.00
31501;BME280;31032;49.512;10.892;2022-08-20T01:59:54;97729.19;;;18.16;100.00
31501;BME280;31032;49.512;10.892;2022-08-20T02:02:19;97729.38;;;18.15;100.00
31501;BME280;31032;49.512;10.892;2022-08-20T02:04:44;97728.72;;;18.13;100.00
31501;BME280;31032;49.512;10.892;2022-08-20T02:07:16;97736.25;;;18.16;100.00
31501;BME280;31032;49.512;10.892;2022-08-20T02:09:42;97735.34;;;18.09;100.00
31501;BME280;31032;49.512;10.892;2022-08-20T02:12:09;97742.63;;;18.07;100.00
31501;BME280;31032;49.512;10.892;2022-08-20T02:14:38;97741.97;;;18.04;100.00
31501;BME280;31032;49.512;10.892;2022-08-20T02:17:04;97740.34;;;18.03;100.00
31501;BME280;31032;49.512;10.892;2022-08-20T02:19:35;97734.44;;;18.01;100.00
31501;BME280;31032;49.512;10.892;2022-08-20T02:22:10;97739.53;;;18.03;100.00
31501;BME280;31032;49.512;10.892;2022-08-20T02:24:38;97734.38;;;18.10;100.00
31501;BME280;31032;49.512;10.892;2022-08-20T02:27:03;97736.00;;;18.11;100.00
31501;BME280;31032;49.512;10.892;2022-08-20T02:29:28;97737.97;;;18.09;100.00
31501;BME280;31032;49.512;10.892;2022-08-20T02:31:54;97739.97;;;18.07;100.00
31501;BME280;31032;49.512;10.892;2022-08-20T02:34:19;97736.69;;;18.04;100.00
31501;BME280;31032;49.512;10.892;2022-08-20T02:36:45;97737.16;;;18.08;100.00
31501;BME280;31032;49.512;10.892;2022-08-20T02:39:13;97733.09;;;18.06;100.00
31501;BME280;31032;49.512;10.892;2022-08-20T02:41:39;97721.28;;;18.01;100.00
31501;BME280;31032;49.512;10.892;2022-08-20T02:44:05;97723.72;;;18.03;100.00
31501;BME280;31032;49.512;10.892;2022-08-20T02:46:32;97725.72;;;18.01;100.00
31501;BME280;31032;49.512;10.892;2022-08-20T02:48:58;97725.00;;;18.07;100.00
31501;BME280;31032;49.512;10.892;2022-08-20T02:51:24;97724.53;;;18.03;100.00
31501;BME280;31032;49.512;10.892;2022-08-20T02:53:50;97723.25;;;17.99;100.00
31501;BME280;31032;49.512;10.892;2022-08-20T02:56:15;97724.44;;;17.97;100.00
31501;BME280;31032;49.512;10.892;2022-08-20T02:58:41;97726.53;;;18.01;100.00
31501;BME280;31032;49.512;10.892;2022-08-20T03:01:10;97728.16;;;18.02;100.00
31501;BME280;31032;49.512;10.892;2022-08-20T03:03:40;97728.16;;;18.02;100.00
31501;BME280;31032;49.512;10.892;2022-08-20T03:06:06;97731.63;;;18.03;100.00
31501;BME280;31032;49.512;10.892;2022-08-20T03:08:33;97724.88;;;18.00;100.00
31501;BME280;31032;49.512;10.892;2022-08-20T03:10:58;97733.44;;;18.02;100.00
31501;BME280;31032;49.512;10.892;2022-08-20T03:13:24;97728.63;;;18.06;100.00
31501;BME280;31032;49.512;10.892;2022-08-20T03:15:55;97727.00;;;18.05;100.00
31501;BME280;31032;49.512;10.892;2022-08-20T03:18:24;97714.34;;;18.00;100.00
31501;BME280;31032;49.512;10.892;2022-08-20T03:20:50;97723.53;;;18.04;100.00
31501;BME280;31032;49.512;10.892;2022-08-20T03:23:18;97716.72;;;17.95;100.00
31501;BME280;31032;49.512;10.892;2022-08-20T03:25:45;97716.53;;;17.97;100.00
31501;BME280;31032;49.512;10.892;2022-08-20T03:28:11;97716.25;;;17.92;100.00
31501;BME280;31032;49.512;10.892;2022-08-20T03:30:37;97711.78;;;17.92;100.00
31501;BME280;31032;49.512;10.892;2022-08-20T03:33:03;97711.78;;;17.92;100.00
31501;BME280;31032;49.512;10.892;2022-08-20T03:35:30;97711.44;;;17.95;100.00
31501;BME280;31032;49.512;10.892;2022-08-20T03:37:55;97718.69;;;17.93;100.00
31501;BME280;31032;49.512;10.892;2022-08-20T03:40:25;97715.41;;;17.91;100.00
31501;BME280;31032;49.512;10.892;2022-08-20T03:42:51;97717.03;;;17.92;100.00
31501;BME280;31032;49.512;10.892;2022-08-20T03:45:17;97710.97;;;17.92;100.00
31501;BME280;31032;49.512;10.892;2022-08-20T03:47:44;97721.53;;;17.92;100.00
31501;BME280;31032;49.512;10.892;2022-08-20T03:50:10;97712.59;;;17.93;100.00
31501;BME280;31032;49.512;10.892;2022-08-20T03:52:36;97726.88;;;17.98;100.00
31501;BME280;31032;49.512;10.892;2022-08-20T03:55:02;97727.56;;;17.92;100.00
31501;BME280;31032;49.512;10.892;2022-08-20T03:57:28;97735.56;;;17.84;100.00
31501;BME280;31032;49.512;10.892;2022-08-20T03:59:53;97734.09;;;17.82;100.00
31501;BME280;31032;49.512;10.892;2022-08-20T04:02:19;97739.56;;;17.80;100.00
31501;BME280;31032;49.512;10.892;2022-08-20T04:04:44;97747.59;;;17.79;100.00
31501;BME280;31032;49.512;10.892;2022-08-20T04:07:18;97741.53;;;17.78;100.00
31501;BME280;31032;49.512;10.892;2022-08-20T04:09:50;97743.16;;;18.02;100.00
31501;BME280;31032;49.512;10.892;2022-08-20T04:12:16;97745.31;;;17.98;100.00
31501;BME280;31032;49.512;10.892;2022-08-20T04:14:42;97739.25;;;17.75;100.00
31501;BME280;31032;49.512;10.892;2022-08-20T04:17:09;97742.47;;;17.85;100.00
31501;BME280;31032;49.512;10.892;2022-08-20T04:19:36;97751.13;;;17.71;100.00
31501;BME280;31032;49.512;10.892;2022-08-20T04:22:02;97745.34;;;17.76;100.00
31501;BME280;31032;49.512;10.892;2022-08-20T04:24:27;97756.50;;;17.78;100.00
31501;BME280;31032;49.512;10.892;2022-08-20T04:26:53;97763.59;;;17.77;100.00
31501;BME280;31032;49.512;10.892;2022-08-20T04:29:20;97767.22;;;17.76;100.00
31501;BME280;31032;49.512;10.892;2022-08-20T04:31:46;97764.91;;;17.73;100.00
31501;BME280;31032;49.512;10.892;2022-08-20T04:34:11;97769.41;;;17.73;100.00
31501;BME280;31032;49.512;10.892;2022-08-20T04:36:37;97772.03;;;17.73;100.00
31501;BME280;31032;49.512;10.892;2022-08-20T04:39:02;97767.41;;;17.75;100.00
31501;BME280;31032;49.512;10.892;2022-08-20T04:41:28;97780.38;;;17.76;100.00
31501;BME280;31032;49.512;10.892;2022-08-20T04:43:55;97782.00;;;17.77;100.00
31501;BME280;31032;49.512;10.892;2022-08-20T04:46:23;97779.09;;;17.72;100.00
31501;BME280;31032;49.512;10.892;2022-08-20T04:48:49;97777.38;;;17.79;100.00
31501;BME280;31032;49.512;10.892;2022-08-20T04:51:15;97782.97;;;17.84;100.00
31501;BME280;31032;49.512;10.892;2022-08-20T04:53:40;97781.31;;;17.83;100.00
31501;BME280;31032;49.512;10.892;2022-08-20T04:56:06;97774.06;;;17.85;100.00
31501;BME280;31032;49.512;10.892;2022-08-20T04:58:34;97768.59;;;17.87;100.00
31501;BME280;31032;49.512;10.892;2022-08-20T05:01:03;97775.22;;;18.06;100.00
31501;BME280;31032;49.512;10.892;2022-08-20T05:03:29;97774.41;;;18.05;100.00
31501;BME280;31032;49.512;10.892;2022-08-20T05:05:55;97770.88;;;18.13;100.00
31501;BME280;31032;49.512;10.892;2022-08-20T05:08:21;97778.84;;;18.04;100.00
31501;BME280;31032;49.512;10.892;2022-08-20T05:10:48;97786.09;;;18.02;100.00
31501;BME280;31032;49.512;10.892;2022-08-20T05:13:15;97793.53;;;17.99;100.00
31501;BME280;31032;49.512;10.892;2022-08-20T05:15:40;97784.47;;;18.01;100.00
31501;BME280;31032;49.512;10.892;2022-08-20T05:18:07;97785.19;;;17.95;100.00
31501;BME280;31032;49.512;10.892;2022-08-20T05:20:35;97784.13;;;18.04;100.00
31501;BME280;31032;49.512;10.892;2022-08-20T05:23:03;97795.09;;;18.08;100.00
31501;BME280;31032;49.512;10.892;2022-08-20T05:25:28;97790.34;;;18.12;100.00
31501;BME280;31032;49.512;10.892;2022-08-20T05:28:02;97793.94;;;18.11;100.00
31501;BME280;31032;49.512;10.892;2022-08-20T05:30:30;97790.34;;;18.12;100.00
31501;BME280;31032;49.512;10.892;2022-08-20T05:32:58;97784.56;;;18.08;100.00
31501;BME280;31032;49.512;10.892;2022-08-20T05:35:23;97784.94;;;18.05;100.00
31501;BME280;31032;49.512;10.892;2022-08-20T05:37:49;97790.38;;;18.03;100.00
31501;BME280;31032;49.512;10.892;2022-08-20T05:40:14;97786.69;;;18.13;100.00
31501;BME280;31032;49.512;10.892;2022-08-20T05:42:40;97793.03;;;18.03;100.00
31501;BME280;31032;49.512;10.892;2022-08-20T05:45:07;97795.28;;;18.07;100.00
31501;BME280;31032;49.512;10.892;2022-08-20T05:47:33;97796.63;;;18.02;100.00
31501;BME280;31032;49.512;10.892;2022-08-20T05:50:03;97788.78;;;17.94;100.00
31501;BME280;31032;49.512;10.892;2022-08-20T05:52:29;97784.16;;;17.96;100.00
31501;BME280;31032;49.512;10.892;2022-08-20T05:54:55;97800.28;;;18.01;100.00
31501;BME280;31032;49.512;10.892;2022-08-20T05:57:20;97796.94;;;18.08;100.00
31501;BME280;31032;49.512;10.892;2022-08-20T05:59:46;97802.50;;;18.13;100.00
31501;BME280;31032;49.512;10.892;2022-08-20T06:02:12;97805.78;;;18.15;100.00
31501;BME280;31032;49.512;10.892;2022-08-20T06:04:56;97804.94;;;18.14;100.00
31501;BME280;31032;49.512;10.892;2022-08-20T06:07:21;97805.81;;;18.07;100.00
31501;BME280;31032;49.512;10.892;2022-08-20T06:09:47;97806.38;;;18.02;100.00
31501;BME280;31032;49.512;10.892;2022-08-20T06:12:13;97811.03;;;18.15;100.00
31501;BME280;31032;49.512;10.892;2022-08-20T06:14:39;97813.63;;;18.37;100.00
31501;BME280;31032;49.512;10.892;2022-08-20T06:17:13;97818.25;;;18.35;100.00
31501;BME280;31032;49.512;10.892;2022-08-20T06:19:39;97808.56;;;18.36;100.00
31501;BME280;31032;49.512;10.892;2022-08-20T06:22:06;97817.09;;;18.38;100.00
31501;BME280;31032;49.512;10.892;2022-08-20T06:24:32;97815.00;;;18.33;100.00
31501;BME280;31032;49.512;10.892;2022-08-20T06:26:59;97832.53;;;18.41;100.00
31501;BME280;31032;49.512;10.892;2022-08-20T06:29:26;97822.69;;;18.43;100.00
31501;BME280;31032;49.512;10.892;2022-08-20T06:31:53;97819.69;;;18.46;100.00
31501;BME280;31032;49.512;10.892;2022-08-20T06:34:18;97815.63;;;18.35;100.00
31501;BME280;31032;49.512;10.892;2022-08-20T06:36:44;97819.56;;;18.39;100.00
31501;BME280;31032;49.512;10.892;2022-08-20T06:39:12;97823.25;;;18.30;100.00
31501;BME280;31032;49.512;10.892;2022-08-20T06:41:37;97815.78;;;18.19;100.00
31501;BME280;31032;49.512;10.892;2022-08-20T06:44:04;97817.63;;;18.33;100.00
31501;BME280;31032;49.512;10.892;2022-08-20T06:46:32;97822.75;;;18.35;100.00
31501;BME280;31032;49.512;10.892;2022-08-20T06:48:57;97820.25;;;18.33;100.00
31501;BME280;31032;49.512;10.892;2022-08-20T06:51:22;97819.09;;;18.36;100.00
31501;BME280;31032;49.512;10.892;2022-08-20T06:53:47;97834.19;;;18.42;100.00
31501;BME280;31032;49.512;10.892;2022-08-20T06:56:13;97827.88;;;18.51;100.00
31501;BME280;31032;49.512;10.892;2022-08-20T06:58:39;97826.81;;;18.60;100.00
31501;BME280;31032;49.512;10.892;2022-08-20T07:01:06;97832.91;;;18.60;100.00
31501;BME280;31032;49.512;10.892;2022-08-20T07:03:31;97832.94;;;18.75;100.00
31501;BME280;31032;49.512;10.892;2022-08-20T07:05:57;97844.13;;;18.77;100.00
31501;BME280;31032;49.512;10.892;2022-08-20T07:08:23;97845.28;;;18.74;100.00
31501;BME280;31032;49.512;10.892;2022-08-20T07:10:49;97841.59;;;18.98;100.00
31501;BME280;31032;49.512;10.892;2022-08-20T07:13:14;97845.31;;;19.04;100.00
31501;BME280;31032;49.512;10.892;2022-08-20T07:15:41;97843.78;;;18.95;100.00
31501;BME280;31032;49.512;10.892;2022-08-20T07:18:06;97840.41;;;18.86;100.00
31501;BME280;31032;49.512;10.892;2022-08-20T07:20:34;97833.19;;;18.80;100.00
31501;BME280;31032;49.512;10.892;2022-08-20T07:23:00;97841.78;;;19.11;100.00
31501;BME280;31032;49.512;10.892;2022-08-20T07:25:26;97845.47;;;18.87;100.00
31501;BME280;31032;49.512;10.892;2022-08-20T07:27:52;97837.56;;;18.73;100.00
31501;BME280;31032;49.512;10.892;2022-08-20T07:30:25;97838.22;;;18.89;100.00
31501;BME280;31032;49.512;10.892;2022-08-20T07:33:09;97837.56;;;18.73;100.00
31501;BME280;31032;49.512;10.892;2022-08-20T07:35:35;97843.03;;;18.86;100.00
31501;BME280;31032;49.512;10.892;2022-08-20T07:38:00;97840.41;;;18.86;100.00
31501;BME280;31032;49.512;10.892;2022-08-20T07:40:28;97842.84;;;18.73;100.00
31501;BME280;31032;49.512;10.892;2022-08-20T07:42:55;97843.50;;;18.89;100.00
31501;BME280;31032;49.512;10.892;2022-08-20T07:45:22;97835.56;;;18.89;100.00
31501;BME280;31032;49.512;10.892;2022-08-20T07:47:49;97838.31;;;18.96;100.00
31501;BME280;31032;49.512;10.892;2022-08-20T07:50:20;97840.97;;;18.96;100.00
31501;BME280;31032;49.512;10.892;2022-08-20T07:52:46;97838.22;;;18.89;100.00
31501;BME280;31032;49.512;10.892;2022-08-20T07:55:13;97844.03;;;18.85;100.00
31501;BME280;31032;49.512;10.892;2022-08-20T07:57:40;97845.75;;;18.78;100.00
31501;BME280;31032;49.512;10.892;2022-08-20T08:00:07;97848.69;;;18.83;100.00
31501;BME280;31032;49.512;10.892;2022-08-20T08:02:34;97842.16;;;18.56;100.00
31501;BME280;31032;49.512;10.892;2022-08-20T08:05:01;97842.91;;;18.65;100.00
31501;BME280;31032;49.512;10.892;2022-08-20T08:07:27;97841.03;;;18.88;100.00
31501;BME280;31032;49.512;10.892;2022-08-20T08:09:54;97846.69;;;18.85;100.00
31501;BME280;31032;49.512;10.892;2022-08-20T08:12:20;97846.94;;;18.90;100.00
31501;BME280;31032;49.512;10.892;2022-08-20T08:14:46;97838.31;;;18.96;100.00
31501;BME280;31032;49.512;10.892;2022-08-20T08:17:14;97844.41;;;19.11;100.00
31501;BME280;31032;49.512;10.892;2022-08-20T08:19:43;97850.31;;;19.13;100.00
31501;BME280;31032;49.512;10.892;2022-08-20T08:22:13;97848.22;;;19.09;100.00
31501;BME280;31032;49.512;10.892;2022-08-20T08:24:40;97853.50;;;19.23;100.00
31501;BME280;31032;49.512;10.892;2022-08-20T08:27:08;97863.34;;;19.29;100.00
31501;BME280;31032;49.512;10.892;2022-08-20T08:29:34;97872.81;;;19.24;100.00
31501;BME280;31032;49.512;10.892;2022-08-20T08:32:01;97864.81;;;19.46;100.00
31501;BME280;31032;49.512;10.892;2022-08-20T08:34:27;97866.44;;;19.62;100.00
31501;BME280;31032;49.512;10.892;2022-08-20T08:36:52;97867.91;;;19.64;100.00
31501;BME280;31032;49.512;10.892;2022-08-20T08:39:18;97867.22;;;19.77;100.00
31501;BME280;31032;49.512;10.892;2022-08-20T08:41:48;97880.22;;;19.78;100.00
31501;BME280;31032;49.512;10.892;2022-08-20T08:44:29;97873.03;;;19.72;100.00
31501;BME280;31032;49.512;10.892;2022-08-20T08:47:06;97880.66;;;19.97;100.00
31501;BME280;31032;49.512;10.892;2022-08-20T08:49:38;97883.84;;;19.92;100.00
31501;BME280;31032;49.512;10.892;2022-08-20T08:52:31;97887.50;;;19.91;100.00
31501;BME280;31032;49.512;10.892;2022-08-20T08:55:00;97885.59;;;19.85;100.00
31501;BME280;31032;49.512;10.892;2022-08-20T08:57:27;97885.31;;;20.16;100.00
31501;BME280;31032;49.512;10.892;2022-08-20T08:59:58;97883.47;;;20.31;100.00
31501;BME280;31032;49.512;10.892;2022-08-20T09:02:26;97892.66;;;20.56;100.00
31501;BME280;31032;49.512;10.892;2022-08-20T09:04:54;97897.00;;;20.63;100.00
31501;BME280;31032;49.512;10.892;2022-08-20T09:07:21;97894.34;;;20.63;100.00
31501;BME280;31032;49.512;10.892;2022-08-20T09:09:49;97906.31;;;20.81;100.00
31501;BME280;31032;49.512;10.892;2022-08-20T09:12:18;97899.44;;;20.86;99.82
31501;BME280;31032;49.512;10.892;2022-08-20T09:14:47;97900.63;;;20.84;97.58
31501;BME280;31032;49.512;10.892;2022-08-20T09:17:18;97902.09;;;20.86;99.03
31501;BME280;31032;49.512;10.892;2022-08-20T09:19:43;97899.81;;;20.83;97.59
31501;BME280;31032;49.512;10.892;2022-08-20T09:22:11;97908.25;;;20.93;96.71
31501;BME280;31032;49.512;10.892;2022-08-20T09:24:37;97899.66;;;20.91;97.10
31501;BME280;31032;49.512;10.892;2022-08-20T09:27:03;97902.00;;;21.01;97.40
31501;BME280;31032;49.512;10.892;2022-08-20T09:29:29;97903.81;;;21.00;98.14
31501;BME280;31032;49.512;10.892;2022-08-20T09:32:05;97904.66;;;21.01;97.33
31501;BME280;31032;49.512;10.892;2022-08-20T09:34:35;97909.88;;;21.15;96.65
31501;BME280;31032;49.512;10.892;2022-08-20T09:37:00;97910.88;;;21.14;98.17
31501;BME280;31032;49.512;10.892;2022-08-20T09:39:25;97900.19;;;21.35;95.92
31501;BME280;31032;49.512;10.892;2022-08-20T09:41:51;97905.19;;;21.17;100.00
31501;BME280;31032;49.512;10.892;2022-08-20T09:44:16;97899.69;;;21.19;97.48
31501;BME280;31032;49.512;10.892;2022-08-20T09:46:41;97901.78;;;21.23;96.98
31501;BME280;31032;49.512;10.892;2022-08-20T09:49:06;97896.66;;;20.94;96.28
31501;BME280;31032;49.512;10.892;2022-08-20T09:51:32;97894.00;;;20.94;96.03
31501;BME280;31032;49.512;10.892;2022-08-20T09:53:58;97895.84;;;21.00;97.63
31501;BME280;31032;49.512;10.892;2022-08-20T09:56:24;97897.16;;;21.04;98.30
31501;BME280;31032;49.512;10.892;2022-08-20T09:58:52;97892.59;;;20.98;97.77
31501;BME280;31032;49.512;10.892;2022-08-20T10:01:18;97896.28;;;21.25;96.99
31501;BME280;31032;49.512;10.892;2022-08-20T10:03:46;97892.06;;;21.37;94.45
31501;BME280;31032;49.512;10.892;2022-08-20T10:06:13;97893.03;;;21.64;94.82
31501;BME280;31032;49.512;10.892;2022-08-20T10:08:40;97905.41;;;21.91;95.95
31501;BME280;31032;49.512;10.892;2022-08-20T10:11:05;97887.88;;;22.03;94.93
31501;BME280;31032;49.512;10.892;2022-08-20T10:13:31;97889.91;;;21.94;94.74
31501;BME280;31032;49.512;10.892;2022-08-20T10:15:56;97893.97;;;21.90;93.19
31501;BME280;31032;49.512;10.892;2022-08-20T10:18:22;97891.38;;;21.97;92.90
31501;BME280;31032;49.512;10.892;2022-08-20T10:20:47;97893.44;;;22.14;88.40
31501;BME280;31032;49.512;10.892;2022-08-20T10:23:12;97890.81;;;22.21;90.30
31501;BME280;31032;49.512;10.892;2022-08-20T10:25:38;97897.91;;;22.07;87.76
31501;BME280;31032;49.512;10.892;2022-08-20T10:28:03;97893.16;;;21.90;92.21
31501;BME280;31032;49.512;10.892;2022-08-20T10:30:29;97902.50;;;21.86;91.40
31501;BME280;31032;49.512;10.892;2022-08-20T10:32:54;97897.94;;;22.20;90.70
31501;BME280;31032;49.512;10.892;2022-08-20T10:35:19;97895.91;;;22.22;90.67
31501;BME280;31032;49.512;10.892;2022-08-20T10:37:45;97898.34;;;22.17;90.72
31501;BME280;31032;49.512;10.892;2022-08-20T10:40:11;97889.22;;;22.46;89.27
31501;BME280;31032;49.512;10.892;2022-08-20T10:42:39;97891.22;;;22.24;89.22
31501;BME280;31032;49.512;10.892;2022-08-20T10:45:04;97890.41;;;22.43;90.09
31501;BME280;31032;49.512;10.892;2022-08-20T10:47:31;97882.25;;;22.38;89.32
31501;BME280;31032;49.512;10.892;2022-08-20T10:49:58;97890.41;;;22.24;90.98
31501;BME280;31032;49.512;10.892;2022-08-20T10:52:25;97888.59;;;22.44;89.71
31501;BME280;31032;49.512;10.892;2022-08-20T10:54:51;97888.81;;;22.49;89.42
31501;BME280;31032;49.512;10.892;2022-08-20T10:57:24;97891.72;;;22.74;90.66
31501;BME280;31032;49.512;10.892;2022-08-20T10:59:51;97884.97;;;22.71;88.97
31501;BME280;31032;49.512;10.892;2022-08-20T11:02:18;97878.22;;;22.49;90.66
31501;BME280;31032;49.512;10.892;2022-08-20T11:04:43;97879.88;;;22.76;87.64
31501;BME280;31032;49.512;10.892;2022-08-20T11:09:39;97884.56;;;22.94;85.37
31501;BME280;31032;49.512;10.892;2022-08-20T11:12:05;97890.06;;;23.12;84.38
31501;BME280;31032;49.512;10.892;2022-08-20T11:14:31;97881.66;;;23.21;83.01
31501;BME280;31032;49.512;10.892;2022-08-20T11:16:56;97880.66;;;23.09;85.61
31501;BME280;31032;49.512;10.892;2022-08-20T11:19:22;97879.44;;;23.18;81.42
31501;BME280;31032;49.512;10.892;2022-08-20T11:21:47;97878.19;;;23.21;80.37
31501;BME280;31032;49.512;10.892;2022-08-20T11:24:12;97872.88;;;23.27;84.48
31501;BME280;31032;49.512;10.892;2022-08-20T11:26:38;97872.84;;;23.47;81.93
31501;BME280;31032;49.512;10.892;2022-08-20T11:29:03;97868.16;;;23.29;83.99
31501;BME280;31032;49.512;10.892;2022-08-20T11:31:28;97872.03;;;23.27;80.45
31501;BME280;31032;49.512;10.892;2022-08-20T11:33:53;97874.94;;;23.12;80.84
31501;BME280;31032;49.512;10.892;2022-08-20T11:36:19;97869.59;;;23.19;81.04
31501;BME280;31032;49.512;10.892;2022-08-20T11:38:44;97867.38;;;23.36;80.80
31501;BME280;31032;49.512;10.892;2022-08-20T11:41:10;97860.13;;;23.56;80.88
31501;BME280;31032;49.512;10.892;2022-08-20T11:43:35;97861.16;;;23.61;80.75
31501;BME280;31032;49.512;10.892;2022-08-20T11:46:00;97858.50;;;23.55;79.63
31501;BME280;31032;49.512;10.892;2022-08-20T11:48:26;97854.94;;;23.74;80.10
31501;BME280;31032;49.512;10.892;2022-08-20T11:50:51;97864.13;;;23.78;77.85
31501;BME280;31032;49.512;10.892;2022-08-20T11:53:16;97863.66;;;23.94;75.50
31501;BME280;31032;49.512;10.892;2022-08-20T11:55:42;97863.13;;;23.79;71.08
31501;BME280;31032;49.512;10.892;2022-08-20T11:58:08;97873.34;;;23.75;71.48
31501;BME280;31032;49.512;10.892;2022-08-20T12:00:34;97866.31;;;23.50;71.41
31501;BME280;31032;49.512;10.892;2022-08-20T12:03:01;97864.28;;;23.39;72.37
31501;BME280;31032;49.512;10.892;2022-08-20T12:05:29;97862.28;;;23.14;74.95
31501;BME280;31032;49.512;10.892;2022-08-20T12:07:54;97860.63;;;23.20;75.94
31501;BME280;31032;49.512;10.892;2022-08-20T12:10:19;97864.72;;;23.09;75.26
31501;BME280;31032;49.512;10.892;2022-08-20T12:12:47;97866.38;;;23.10;76.71
31501;BME280;31032;49.512;10.892;2022-08-20T12:15:12;97866.38;;;23.17;79.20
31501;BME280;31032;49.512;10.892;2022-08-20T12:17:38;97867.97;;;23.24;79.94
31501;BME280;31032;49.512;10.892;2022-08-20T12:20:09;97868.66;;;22.87;81.01
31501;BME280;31032;49.512;10.892;2022-08-20T12:22:35;97872.53;;;22.59;83.09
31501;BME280;31032;49.512;10.892;2022-08-20T12:25:02;97877.34;;;22.16;85.55
31501;BME280;31032;49.512;10.892;2022-08-20T12:27:30;97875.47;;;22.10;87.20
31501;BME280;31032;49.512;10.892;2022-08-20T12:29:58;97882.63;;;22.16;87.16
31501;BME280;31032;49.512;10.892;2022-08-20T12:32:26;97874.44;;;22.11;88.21
31501;BME280;31032;49.512;10.892;2022-08-20T12:34:51;97871.38;;;21.94;90.63
31501;BME280;31032;49.512;10.892;2022-08-20T12:37:20;97871.13;;;21.83;92.60
31501;BME280;31032;49.512;10.892;2022-08-20T12:39:49;97866.13;;;21.60;95.43
31501;BME280;31032;49.512;10.892;2022-08-20T12:42:15;97866.81;;;21.34;97.38
31501;BME280;31032;49.512;10.892;2022-08-20T12:44:42;97870.44;;;21.33;100.00
31501;BME280;31032;49.512;10.892;2022-08-20T12:47:23;97881.53;;;21.09;100.00